Time;durP1;ratioP1;P1;durP2;ratioP2;P2;SDS_P1;SDS_P2;PMS_P1;PMS_P2;Temp;Humidity;BMP_temperature;BMP_pressure;BME280_temperature;BME280_humidity;BME280_pressure;Samples;Min_cycle;Max_cycle;Signal;HPM_P1;HPM_P2
2021/12/26 00:10:48;;;;;;;;;39.00;29.25;;;;;13.38;52.81;98176.22;5072073;23;102202;31
2021/12/26 00:13:16;;;;;;;;;44.25;35.00;;;;;13.44;52.64;98173.66;4801621;29;102369;-85
2021/12/26 00:15:43;;;;;;;;;33.75;30.00;;;;;13.47;52.65;98179.44;4812937;29;102537;-85
2021/12/26 00:18:10;;;;;;;;;34.25;30.75;;;;;13.52;52.64;98176.03;4792180;29;104283;-85
2021/12/26 00:20:38;;;;;;;;;41.50;33.25;;;;;13.54;51.89;98184.78;4800014;29;102892;-85
2021/12/26 00:23:06;;;;;;;;;37.50;32.25;;;;;13.57;52.80;98178.91;4780940;29;105090;-85
2021/12/26 00:25:33;;;;;;;;;39.75;34.00;;;;;13.60;52.67;98181.16;4798419;29;103114;-85
2021/12/26 00:28:01;;;;;;;;;38.50;34.25;;;;;13.63;52.01;98175.25;4800000;29;104061;-84
2021/12/26 00:30:28;;;;;;;;;42.25;35.75;;;;;13.67;52.69;98184.59;4804974;29;103308;-85
2021/12/26 00:32:55;;;;;;;;;40.75;33.25;;;;;13.68;52.45;98192.53;4803946;29;102415;-85
2021/12/26 00:35:22;;;;;;;;;34.25;32.00;;;;;13.73;52.84;98195.38;4809124;29;102674;-84
2021/12/26 00:37:49;;;;;;;;;41.25;34.00;;;;;13.75;52.76;98187.00;4806678;29;104024;-84
2021/12/26 00:40:19;;;;;;;;;35.00;30.25;;;;;13.79;51.96;98193.63;4803640;29;103033;-85
2021/12/26 00:42:46;;;;;;;;;37.50;33.50;;;;;13.79;52.26;98182.75;4800217;29;103036;-85
2021/12/26 00:45:13;;;;;;;;;42.00;35.25;;;;;13.82;52.57;98198.63;4801757;29;102548;-85
2021/12/26 00:47:40;;;;;;;;;35.50;34.00;;;;;13.83;52.77;98192.91;4805708;29;106690;-85
2021/12/26 00:50:11;;;;;;;;;41.50;33.50;;;;;13.89;53.02;98198.50;4803151;29;102690;-85
2021/12/26 00:52:38;;;;;;;;;42.50;36.00;;;;;13.91;52.82;98202.66;4811862;29;102602;-85
2021/12/26 00:55:06;;;;;;;;;50.75;35.25;;;;;13.93;52.33;98211.38;4804298;29;103830;-85
2021/12/26 00:57:33;;;;;;;;;40.50;34.75;;;;;13.97;52.48;98204.44;4803179;29;104054;-85
2021/12/26 01:00:00;;;;;;;;;40.25;35.00;;;;;13.98;53.13;98192.50;4806048;29;104109;-85
2021/12/26 01:02:29;;;;;;;;;40.75;31.25;;;;;14.02;52.41;98192.84;4790900;29;103376;-85
2021/12/26 01:04:57;;;;;;;;;39.25;34.75;;;;;14.04;53.12;98186.13;4806384;29;102550;-85
2021/12/26 01:07:37;;;;;;;;;43.75;35.25;;;;;14.07;52.54;98185.66;4796099;29;104988;-85
2021/12/26 01:10:05;;;;;;;;;47.25;36.00;;;;;14.10;52.40;98185.19;4803467;29;102745;-85
2021/12/26 01:12:33;;;;;;;;;48.25;34.75;;;;;14.13;52.19;98187.47;4788889;29;102857;-85
2021/12/26 01:15:05;;;;;;;;;43.50;34.50;;;;;14.15;52.48;98185.31;4794686;29;102450;-85
2021/12/26 01:17:34;;;;;;;;;45.75;35.75;;;;;14.17;52.34;98177.78;4789663;29;104334;-85
2021/12/26 01:20:06;;;;;;;;;44.75;36.00;;;;;14.20;51.53;98169.13;4793665;29;102894;-85
2021/12/26 01:22:33;;;;;;;;;43.00;34.50;;;;;14.23;51.48;98176.81;4787454;29;107108;-85
2021/12/26 01:25:00;;;;;;;;;39.75;34.00;;;;;14.25;51.76;98171.97;4794407;29;103208;-85
2021/12/26 01:27:27;;;;;;;;;41.00;33.50;;;;;14.29;52.31;98172.34;4789694;29;104123;-85
2021/12/26 01:29:54;;;;;;;;;42.00;34.75;;;;;14.30;51.59;98169.38;4788512;29;104042;-85
2021/12/26 01:32:21;;;;;;;;;39.25;34.25;;;;;14.33;51.96;98170.78;4792266;29;102709;-82
2021/12/26 01:34:48;;;;;;;;;39.75;35.75;;;;;14.34;51.93;98164.31;4791175;29;102699;-83
2021/12/26 01:37:15;;;;;;;;;43.75;34.50;;;;;14.36;51.32;98164.09;4787064;29;104281;-82
2021/12/26 01:39:42;;;;;;;;;39.50;33.75;;;;;14.26;51.95;98149.16;4790790;29;102772;-83
2021/12/26 01:42:10;;;;;;;;;42.75;35.75;;;;;14.40;50.97;98157.97;4772885;29;102545;-83
2021/12/26 01:44:38;;;;;;;;;43.75;36.25;;;;;14.40;51.93;98152.53;4792589;29;102964;-83
2021/12/26 01:47:05;;;;;;;;;43.25;35.75;;;;;14.43;51.58;98157.47;4786123;29;104152;-83
2021/12/26 01:49:32;;;;;;;;;43.75;34.75;;;;;14.43;51.29;98154.75;4791824;29;102150;-83
2021/12/26 01:52:01;;;;;;;;;44.75;37.75;;;;;14.48;51.14;98154.03;4797102;29;102919;-83
2021/12/26 01:54:44;;;;;;;;;49.25;36.25;;;;;14.48;51.32;98154.88;4771476;29;102653;-83
2021/12/26 01:57:12;;;;;;;;;42.75;34.25;;;;;14.50;50.74;98149.22;4774902;29;104057;-83
2021/12/26 01:59:40;;;;;;;;;49.50;38.25;;;;;14.47;50.88;98146.94;4796230;29;102791;-83
2021/12/26 02:02:07;;;;;;;;;45.00;35.50;;;;;14.52;51.10;98138.91;4774070;29;102754;-83
2021/12/26 02:04:37;;;;;;;;;37.25;30.75;;;;;14.53;50.52;98152.28;4777211;29;103001;-83
2021/12/26 02:07:04;;;;;;;;;39.25;32.25;;;;;14.55;51.15;98152.03;4794000;29;104077;-83
2021/12/26 02:09:31;;;;;;;;;42.25;35.25;;;;;14.56;50.42;98153.69;4787728;29;104045;-83
2021/12/26 02:11:58;;;;;;;;;34.50;25.00;;;;;14.57;50.50;98155.34;4788453;29;103017;-83
2021/12/26 02:14:25;;;;;;;;;40.50;33.50;;;;;14.59;50.86;98155.94;4792264;29;102701;-83
2021/12/26 02:16:52;;;;;;;;;36.00;32.75;;;;;14.59;50.72;98156.75;4789280;29;104244;-83
2021/12/26 02:19:21;;;;;;;;;41.00;35.25;;;;;14.60;50.15;98149.41;4787362;29;102566;-83
2021/12/26 02:24:57;;;;;;;;;45.75;34.50;;;;;14.62;50.11;98155.47;4786195;29;103481;-83
2021/12/26 02:27:32;;;;;;;;;38.75;31.50;;;;;14.63;50.09;98151.69;4789301;29;104117;-83
2021/12/26 02:30:00;;;;;;;;;48.75;35.50;;;;;14.63;50.58;98147.03;4791752;29;102401;-83
2021/12/26 02:32:29;;;;;;;;;40.50;33.25;;;;;14.64;50.58;98147.88;4783650;29;102748;-83
2021/12/26 02:34:57;;;;;;;;;39.50;34.00;;;;;14.65;49.86;98152.25;4795205;29;102725;-83
2021/12/26 02:37:24;;;;;;;;;40.25;34.00;;;;;14.64;49.90;98151.44;4794606;29;104002;-83
2021/12/26 02:39:51;;;;;;;;;40.00;33.25;;;;;14.63;50.21;98149.75;4775094;29;102823;-83
2021/12/26 02:42:19;;;;;;;;;44.25;34.75;;;;;14.65;50.20;98158.53;4789247;29;104211;-83
2021/12/26 02:44:46;;;;;;;;;40.25;35.00;;;;;14.67;50.27;98155.59;4796203;29;102362;-83
2021/12/26 02:47:14;;;;;;;;;35.25;31.50;;;;;14.65;50.30;98157.69;4794172;29;104244;-83
2021/12/26 02:49:41;;;;;;;;;41.75;34.00;;;;;14.58;49.92;98143.41;4774950;29;103336;-83
2021/12/26 02:52:08;;;;;;;;;41.50;33.00;;;;;14.65;50.37;98154.97;4797065;29;102447;-82
2021/12/26 02:54:35;;;;;;;;;38.00;30.75;;;;;14.66;50.23;98162.91;4796786;29;102670;-83
2021/12/26 02:57:02;;;;;;;;;42.00;36.25;;;;;14.66;50.04;98164.81;4793114;29;104668;-83
2021/12/26 02:59:32;;;;;;;;;44.00;36.25;;;;;14.66;49.42;98164.81;4794149;29;103003;-83
2021/12/26 03:01:59;;;;;;;;;44.25;36.00;;;;;14.64;49.53;98164.19;4792457;29;103552;-84
2021/12/26 03:04:26;;;;;;;;;47.25;35.25;;;;;14.66;49.73;98172.97;4795932;29;102688;-84
2021/12/26 03:07:02;;;;;;;;;36.75;32.00;;;;;14.67;49.58;98166.47;4798127;29;104186;-84
2021/12/26 03:09:33;;;;;;;;;48.25;36.50;;;;;14.69;49.39;98164.31;4775306;29;102715;-83
2021/12/26 03:12:00;;;;;;;;;36.75;31.25;;;;;14.75;48.77;98168.81;4789038;29;102469;-84
2021/12/26 03:14:27;;;;;;;;;35.25;31.25;;;;;14.78;48.56;98173.78;4778846;29;102627;-84
2021/12/26 03:16:54;;;;;;;;;32.75;29.25;;;;;14.82;48.46;98168.69;4792465;29;104123;-84
2021/12/26 03:19:21;;;;;;;;;39.25;28.50;;;;;14.84;48.26;98172.00;4792321;29;102663;-84
2021/12/26 03:21:50;;;;;;;;;38.75;32.50;;;;;14.88;48.03;98175.91;4793615;29;102926;-84
2021/12/26 03:24:18;;;;;;;;;36.25;29.50;;;;;14.89;47.86;98181.13;4778214;29;103119;-84
2021/12/26 03:26:45;;;;;;;;;38.25;31.25;;;;;14.92;47.84;98177.06;4790507;29;103935;-84
2021/12/26 03:29:12;;;;;;;;;32.00;29.00;;;;;14.91;47.33;98170.81;4795065;29;104679;-84
2021/12/26 03:31:41;;;;;;;;;34.75;31.25;;;;;14.94;47.65;98175.78;4790520;29;102176;-84
2021/12/26 03:34:08;;;;;;;;;39.00;35.00;;;;;14.94;47.63;98174.97;4787262;29;103550;-84
2021/12/26 03:36:36;;;;;;;;;37.25;33.00;;;;;14.95;47.25;98180.13;4793730;29;104040;-84
2021/12/26 03:39:03;;;;;;;;;37.75;30.75;;;;;14.96;47.14;98176.34;4791430;29;102101;-84
2021/12/26 03:41:30;;;;;;;;;34.00;31.00;;;;;14.97;47.36;98178.03;4785344;29;102896;-84
2021/12/26 03:43:57;;;;;;;;;45.25;32.00;;;;;14.98;46.85;98181.56;4796291;29;103602;-84
2021/12/26 03:46:24;;;;;;;;;47.00;38.00;;;;;14.99;47.09;98186.78;4796975;29;104050;-84
2021/12/26 03:48:51;;;;;;;;;40.50;33.25;;;;;14.97;46.59;98190.81;4808033;29;103488;-84
2021/12/26 03:51:19;;;;;;;;;39.00;33.00;;;;;14.96;46.43;98194.59;4789316;29;102229;-84
2021/12/26 03:53:46;;;;;;;;;42.25;33.75;;;;;14.94;46.66;98186.69;4807995;29;102532;-84
2021/12/26 03:56:14;;;;;;;;;44.25;34.00;;;;;14.93;46.61;98193.19;4804111;29;103264;-84
2021/12/26 03:58:42;;;;;;;;;45.00;33.00;;;;;14.92;46.54;98194.25;4807675;29;102045;-84
2021/12/26 04:01:09;;;;;;;;;37.75;32.00;;;;;14.91;46.66;98200.75;4806534;29;102179;-84
2021/12/26 04:03:36;;;;;;;;;39.75;33.50;;;;;14.90;46.56;98196.38;4790844;29;103229;-84
2021/12/26 04:06:04;;;;;;;;;31.50;29.25;;;;;14.88;46.69;98190.34;4809580;29;103380;-84
2021/12/26 04:08:31;;;;;;;;;39.75;33.00;;;;;14.86;47.09;98188.94;4806046;29;103634;-84
2021/12/26 04:10:58;;;;;;;;;36.50;32.75;;;;;14.86;46.60;98189.75;4805818;29;102667;-84
2021/12/26 04:13:28;;;;;;;;;40.25;32.25;;;;;14.84;46.93;98197.34;4813611;29;102474;-93
2021/12/26 04:15:55;;;;;;;;;25.25;23.00;;;;;14.86;46.89;98208.78;4808379;29;103691;-86
2021/12/26 04:18:22;;;;;;;;;44.00;33.00;;;;;14.82;47.38;98199.44;4806260;29;102079;-86
2021/12/26 04:20:49;;;;;;;;;38.00;30.75;;;;;14.78;47.28;98206.44;4810821;29;101826;-86
2021/12/26 04:23:16;;;;;;;;;35.75;31.50;;;;;14.72;47.55;98201.97;4805846;29;101882;-86
2021/12/26 04:25:43;;;;;;;;;46.25;34.75;;;;;14.66;47.39;98200.19;4806063;29;103991;-86
2021/12/26 04:28:11;;;;;;;;;33.75;31.00;;;;;14.60;47.33;98192.94;4807889;29;102288;-85
2021/12/26 04:30:38;;;;;;;;;35.00;29.25;;;;;14.56;47.35;98198.03;4805859;29;103486;-85
2021/12/26 04:33:05;;;;;;;;;36.25;31.50;;;;;14.51;47.57;98191.66;4808392;29;102070;-85
2021/12/26 04:35:32;;;;;;;;;42.50;33.00;;;;;14.46;48.11;98200.53;4793303;29;105182;-85
2021/12/26 04:37:59;;;;;;;;;40.00;32.75;;;;;14.43;47.50;98203.72;4807609;28;102365;-85
2021/12/26 04:40:26;;;;;;;;;40.25;32.25;;;;;14.39;47.46;98199.81;4804291;29;103207;-86
2021/12/26 04:42:53;;;;;;;;;40.00;30.50;;;;;14.34;48.13;98210.53;4812737;29;101792;-85
2021/12/26 04:45:20;;;;;;;;;41.75;32.75;;;;;14.30;47.98;98206.63;4804941;29;103931;-85
2021/12/26 04:47:49;;;;;;;;;38.50;30.25;;;;;14.25;48.03;98218.22;4808970;29;101942;-85
2021/12/26 04:50:19;;;;;;;;;39.50;32.00;;;;;14.22;47.82;98209.69;4810806;29;102236;-85
2021/12/26 04:52:47;;;;;;;;;32.00;30.25;;;;;14.17;48.03;98221.28;4803924;29;102911;-85
2021/12/26 04:55:16;;;;;;;;;34.00;28.25;;;;;14.15;47.94;98220.66;4807633;29;103418;-85
2021/12/26 04:57:43;;;;;;;;;37.75;27.75;;;;;14.09;47.73;98216.19;4805475;29;102645;-85
2021/12/26 05:00:13;;;;;;;;;35.75;28.50;;;;;14.07;47.55;98217.47;4805057;29;101964;-85
2021/12/26 05:02:40;;;;;;;;;33.25;28.00;;;;;14.02;48.11;98220.88;4805011;29;103123;-85
2021/12/26 05:05:08;;;;;;;;;31.75;26.00;;;;;14.01;47.71;98216.50;4807786;29;103126;-85
2021/12/26 05:07:35;;;;;;;;;38.75;31.00;;;;;13.98;47.66;98218.84;4803209;29;104354;-85
2021/12/26 05:10:04;;;;;;;;;32.00;29.00;;;;;13.93;47.55;98216.81;4803898;29;102081;-85
2021/12/26 05:12:32;;;;;;;;;37.00;29.25;;;;;13.93;48.15;98222.25;4807209;29;101917;-85
2021/12/26 05:15:01;;;;;;;;;39.00;31.00;;;;;13.90;47.34;98222.75;4805638;29;103188;-85
2021/12/26 05:17:30;;;;;;;;;37.00;28.50;;;;;13.84;47.88;98221.75;4803340;29;102146;-85
2021/12/26 05:19:57;;;;;;;;;30.25;27.00;;;;;13.84;47.33;98216.34;4803875;29;102241;-85
2021/12/26 05:22:24;;;;;;;;;37.25;29.50;;;;;13.81;47.79;98216.81;4806802;29;102062;-85
2021/12/26 05:24:51;;;;;;;;;38.00;29.50;;;;;13.78;47.96;98219.13;4804814;29;103999;-85
2021/12/26 05:27:18;;;;;;;;;35.00;31.50;;;;;13.79;47.03;98224.34;4809554;28;102764;-85
2021/12/26 05:29:45;;;;;;;;;37.75;31.50;;;;;13.80;47.41;98225.19;4801526;29;102204;-85
2021/12/26 05:32:12;;;;;;;;;41.25;31.75;;;;;13.75;47.87;98225.03;4788798;29;102345;-85
2021/12/26 05:34:39;;;;;;;;;35.75;30.75;;;;;13.72;47.88;98217.34;4805321;29;105119;-85
2021/12/26 05:37:06;;;;;;;;;36.25;30.75;;;;;13.70;47.03;98224.88;4808178;29;102067;-85
2021/12/26 05:39:33;;;;;;;;;27.75;25.75;;;;;13.65;48.07;98222.88;4799657;29;102695;-85
2021/12/26 05:42:00;;;;;;;;;38.25;28.25;;;;;13.64;47.15;98223.13;4806558;28;102051;-85
2021/12/26 05:44:27;;;;;;;;;32.25;30.00;;;;;13.61;47.64;98220.84;4801173;29;103589;-84
2021/12/26 05:47:01;;;;;;;;;39.75;30.75;;;;;13.58;47.28;98218.59;4789513;29;102081;-85
2021/12/26 05:49:29;;;;;;;;;31.50;25.75;;;;;13.57;47.67;98219.63;4790161;29;101757;-85
2021/12/26 05:51:56;;;;;;;;;35.75;31.50;;;;;13.56;47.61;98220.69;4806407;28;102246;-85
2021/12/26 05:54:23;;;;;;;;;36.00;32.25;;;;;13.55;47.84;98221.78;4804806;29;103255;-85
2021/12/26 05:56:50;;;;;;;;;33.50;30.75;;;;;13.52;47.23;98225.75;4808026;28;102133;-84
2021/12/26 05:59:17;;;;;;;;;33.75;28.50;;;;;13.50;47.53;98235.22;4806521;28;102140;-85
2021/12/26 06:01:44;;;;;;;;;36.75;29.00;;;;;13.46;47.00;98228.56;4804531;29;103132;-85
2021/12/26 06:04:11;;;;;;;;;27.25;22.75;;;;;13.43;47.60;98231.72;4805758;29;103576;-85
2021/12/26 06:06:39;;;;;;;;;31.50;26.50;;;;;13.37;47.90;98225.34;4809501;29;101916;-84
2021/12/26 06:09:09;;;;;;;;;32.50;27.00;;;;;13.37;47.97;98231.56;4809162;29;102869;-85
2021/12/26 06:11:36;;;;;;;;;33.25;30.50;;;;;13.39;47.39;98234.06;4808736;28;101812;-85
2021/12/26 06:14:04;;;;;;;;;33.50;30.75;;;;;13.36;46.67;98226.41;4809631;29;103081;-85
2021/12/26 06:16:31;;;;;;;;;38.00;30.50;;;;;13.31;47.05;98227.06;4813100;29;102184;-85
2021/12/26 06:18:58;;;;;;;;;32.75;27.50;;;;;13.27;47.88;98235.91;4807935;29;103803;-84
2021/12/26 06:21:25;;;;;;;;;31.75;27.50;;;;;13.27;46.90;98225.03;4808845;29;102159;-84
2021/12/26 06:23:52;;;;;;;;;36.00;27.50;;;;;13.26;47.31;98236.97;4813727;29;103326;-84
2021/12/26 06:26:21;;;;;;;;;37.25;29.75;;;;;13.25;47.25;98238.00;4813705;29;103711;-84
2021/12/26 06:28:48;;;;;;;;;36.25;27.75;;;;;13.23;47.21;98242.84;4813257;29;101976;-84
2021/12/26 06:31:15;;;;;;;;;27.50;25.00;;;;;13.20;47.60;98238.69;4812515;28;105258;-84
2021/12/26 06:33:42;;;;;;;;;33.75;29.50;;;;;13.16;47.05;98239.38;4808087;29;103081;-84
2021/12/26 06:36:09;;;;;;;;;31.75;25.00;;;;;13.14;46.86;98242.31;4808222;29;101831;-84
2021/12/26 06:38:37;;;;;;;;;27.00;23.75;;;;;13.14;46.73;98250.47;4811523;29;103641;-84
2021/12/26 06:41:08;;;;;;;;;30.50;26.25;;;;;13.15;46.87;98243.97;4811759;29;101979;-84
2021/12/26 06:43:37;;;;;;;;;41.25;28.00;;;;;13.12;46.95;98249.03;4810116;29;104302;-84
2021/12/26 06:46:04;;;;;;;;;32.25;27.50;;;;;13.15;46.31;98260.25;4812134;29;102082;-84
2021/12/26 06:48:32;;;;;;;;;34.50;26.25;;;;;13.16;46.49;98253.78;4810963;28;101995;-84
2021/12/26 06:50:59;;;;;;;;;30.75;24.75;;;;;13.16;46.42;98261.91;4811476;29;102225;-84
2021/12/26 06:53:26;;;;;;;;;26.50;24.75;;;;;13.14;46.82;98253.19;4809264;28;103610;-84
2021/12/26 06:55:53;;;;;;;;;16.25;12.75;;;;;13.14;46.37;98258.63;4809156;28;111448;-84
2021/12/26 06:58:20;;;;;;;;;32.00;24.50;;;;;13.03;47.00;98251.16;4810829;29;103147;-84
2021/12/26 07:00:47;;;;;;;;;26.75;21.50;;;;;13.04;46.97;98260.16;4813256;29;103042;-84
2021/12/26 07:03:15;;;;;;;;;25.50;23.00;;;;;13.00;46.90;98254.34;4808961;29;103543;-84
2021/12/26 07:05:42;;;;;;;;;27.00;24.25;;;;;13.03;46.27;98253.88;4807223;29;101815;-83
2021/12/26 07:08:09;;;;;;;;;28.00;25.25;;;;;13.05;47.19;98268.06;4810512;29;102121;-84
2021/12/26 07:10:36;;;;;;;;;28.00;25.00;;;;;13.03;46.72;98269.34;4809551;29;102182;-84
2021/12/26 07:13:03;;;;;;;;;31.25;26.25;;;;;13.05;46.29;98276.22;4809401;29;103393;-84
2021/12/26 07:15:30;;;;;;;;;31.00;28.25;;;;;13.02;46.69;98279.34;4809840;29;102256;-84
2021/12/26 07:17:57;;;;;;;;;35.25;28.25;;;;;13.03;46.11;98272.88;4807780;29;103058;-83
2021/12/26 07:20:24;;;;;;;;;29.25;25.25;;;;;13.03;47.11;98281.03;4808930;29;103003;-84
2021/12/26 07:22:51;;;;;;;;;27.25;25.00;;;;;13.00;46.58;98278.78;4812863;29;103318;-84
2021/12/26 07:25:18;;;;;;;;;33.50;26.50;;;;;12.97;46.93;98281.91;4786796;29;103601;-83
2021/12/26 07:27:45;;;;;;;;;30.00;25.75;;;;;12.94;46.08;98285.91;4794340;29;103867;-85
2021/12/26 07:30:15;;;;;;;;;32.25;26.50;;;;;12.90;46.65;98281.16;4803975;29;102497;-87
2021/12/26 07:32:45;;;;;;;;;26.00;22.00;;;;;12.86;46.32;98274.53;4794485;29;104282;-88
2021/12/26 07:35:12;;;;;;;;;30.00;25.00;;;;;12.85;46.62;98278.28;4798709;29;102527;-86
2021/12/26 07:37:39;;;;;;;;;32.75;29.25;;;;;12.81;46.28;98288.75;4794150;29;103379;-87
2021/12/26 07:40:06;;;;;;;;;26.00;24.75;;;;;12.81;46.65;98285.22;4793828;29;102469;-88
2021/12/26 07:42:33;;;;;;;;;29.75;28.25;;;;;12.80;46.36;98294.41;4797479;29;104343;-87
2021/12/26 07:45:00;;;;;;;;;32.75;28.00;;;;;12.77;46.27;98297.56;4781641;29;102962;-88
2021/12/26 07:47:28;;;;;;;;;26.75;23.00;;;;;12.78;46.45;98304.66;4779251;29;102660;-88
2021/12/26 07:49:55;;;;;;;;;26.50;25.00;;;;;12.76;46.68;98307.59;4797757;29;103319;-88
2021/12/26 07:52:27;;;;;;;;;27.25;23.25;;;;;12.73;47.28;98309.91;4799593;29;103828;-88
2021/12/26 07:54:54;;;;;;;;;28.25;25.50;;;;;12.72;47.07;98311.78;4797239;29;102709;-88
2021/12/26 07:57:21;;;;;;;;;29.25;25.00;;;;;12.72;47.09;98319.09;4792648;29;102492;-88
2021/12/26 07:59:48;;;;;;;;;29.50;24.00;;;;;12.72;47.26;98319.09;4793333;29;102664;-88
2021/12/26 08:02:18;;;;;;;;;28.75;23.50;;;;;12.71;46.18;98314.72;4800200;29;104078;-88
2021/12/26 08:04:47;;;;;;;;;25.50;22.50;;;;;12.70;46.59;98313.88;4795866;29;102231;-89
2021/12/26 08:07:14;;;;;;;;;27.00;22.50;;;;;12.70;46.43;98313.88;4776205;29;102470;-88
2021/12/26 08:09:41;;;;;;;;;29.75;23.50;;;;;12.71;46.98;98314.72;4795976;29;102508;-88
2021/12/26 08:12:08;;;;;;;;;30.25;24.00;;;;;12.71;47.07;98303.88;4780473;29;104348;-88
2021/12/26 08:14:37;;;;;;;;;34.25;32.00;;;;;12.71;46.15;98309.28;4793300;29;102754;-88
2021/12/26 08:17:04;;;;;;;;;32.50;25.50;;;;;12.69;46.14;98306.00;4797266;29;102588;-88
2021/12/26 08:19:32;;;;;;;;;31.25;22.25;;;;;12.67;47.01;98299.94;4786235;29;103865;-88
2021/12/26 08:22:06;;;;;;;;;26.50;22.25;;;;;12.66;46.13;98298.28;4797460;29;104048;-88
2021/12/26 08:24:33;;;;;;;;;25.00;24.00;;;;;12.66;46.44;98306.41;4795896;29;102597;-88
2021/12/26 08:27:00;;;;;;;;;24.25;22.00;;;;;12.63;46.54;98296.84;4801052;29;104522;-87
2021/12/26 08:29:28;;;;;;;;;27.00;19.75;;;;;12.65;46.65;98299.34;4796446;29;103352;-87
2021/12/26 08:31:57;;;;;;;;;25.50;19.75;;;;;12.62;46.12;98305.19;4800763;29;104610;-87
2021/12/26 08:34:24;;;;;;;;;26.50;23.25;;;;;12.63;46.79;98301.44;4798303;29;102696;-89
2021/12/26 08:37:01;;;;;;;;;26.00;23.25;;;;;12.61;46.69;98301.66;4796424;29;102498;-89
2021/12/26 08:39:30;;;;;;;;;26.00;23.00;;;;;12.61;46.65;98314.41;4801398;29;102999;-88
2021/12/26 08:41:57;;;;;;;;;6.00;2.00;;;;;12.56;46.40;98311.53;4801678;29;104313;-87
2021/12/26 08:44:28;;;;;;;;;26.75;24.00;;;;;12.56;46.79;98316.94;4797334;29;102421;-87
2021/12/26 08:46:55;;;;;;;;;29.25;26.75;;;;;12.54;46.70;98319.88;4795303;29;102869;-87
2021/12/26 08:49:22;;;;;;;;;26.75;23.00;;;;;12.53;46.92;98310.06;4790426;29;102336;-87
2021/12/26 08:51:50;;;;;;;;;36.00;27.00;;;;;12.50;46.35;98308.66;4799606;29;105010;-87
2021/12/26 08:54:18;;;;;;;;;27.75;23.00;;;;;12.47;46.88;98303.63;4808188;28;102773;-87
2021/12/26 08:56:45;;;;;;;;;26.25;20.50;;;;;12.48;46.41;98301.75;4811387;29;102182;-87
2021/12/26 08:59:12;;;;;;;;;30.50;22.75;;;;;12.46;47.23;98312.84;4812926;29;102688;-87
2021/12/26 09:01:39;;;;;;;;;30.00;23.75;;;;;12.46;47.17;98312.84;4795841;29;103749;-82
2021/12/26 09:04:06;;;;;;;;;28.00;23.25;;;;;12.48;47.16;98310.72;4808566;29;103063;-87
2021/12/26 09:06:33;;;;;;;;;23.75;19.75;;;;;12.49;47.05;98308.84;4796433;29;102227;-87
2021/12/26 09:09:00;;;;;;;;;27.25;22.00;;;;;12.48;47.47;98310.72;4814537;29;101745;-87
2021/12/26 09:11:27;;;;;;;;;28.75;23.75;;;;;12.52;47.56;98305.69;4809824;29;103402;-87
2021/12/26 09:13:54;;;;;;;;;29.50;25.00;;;;;12.52;47.00;98306.53;4813086;29;102307;-87
2021/12/26 09:16:21;;;;;;;;;30.75;23.00;;;;;12.53;46.85;98305.47;4813352;29;102328;-87
2021/12/26 09:18:50;;;;;;;;;26.00;23.00;;;;;12.51;46.83;98304.06;4812612;29;102040;-87
2021/12/26 09:21:17;;;;;;;;;26.00;21.50;;;;;12.55;47.65;98305.28;4809303;29;103467;-87
2021/12/26 09:23:45;;;;;;;;;32.00;25.75;;;;;12.55;47.66;98305.28;4808975;29;102308;-85
2021/12/26 09:26:14;;;;;;;;;30.00;24.50;;;;;12.61;46.85;98303.56;4811129;29;102141;-87
2021/12/26 09:28:42;;;;;;;;;31.75;26.50;;;;;12.58;46.26;98298.56;4817091;29;101889;-87
2021/12/26 09:31:09;;;;;;;;;13.00;8.75;;;;;12.62;46.33;98302.50;4813549;29;113409;-80
2021/12/26 09:33:37;;;;;;;;;29.00;26.50;;;;;12.69;49.25;98289.72;4810330;29;102698;-80
2021/12/26 09:36:07;;;;;;;;;30.00;25.00;;;;;12.80;49.58;98291.69;4813476;29;102911;-78
2021/12/26 09:38:35;;;;;;;;;34.75;25.75;;;;;12.89;50.19;98290.34;4798909;29;102232;-79
2021/12/26 09:41:02;;;;;;;;;33.00;26.25;;;;;12.82;45.58;98286.88;4794436;29;103685;-80
2021/12/26 09:43:29;;;;;;;;;37.00;33.50;;;;;12.62;43.75;98286.22;4795880;29;102433;-80
2021/12/26 09:46:02;;;;;;;;;40.75;35.75;;;;;12.40;44.51;98281.19;4795110;29;101981;-80
2021/12/26 09:48:29;;;;;;;;;45.75;34.75;;;;;12.50;46.08;98281.53;4814078;29;103024;-81
2021/12/26 09:50:56;;;;;;;;;38.25;33.50;;;;;12.64;47.65;98281.41;4812068;29;103481;-82
2021/12/26 09:53:23;;;;;;;;;42.00;30.00;;;;;12.74;48.40;98284.47;4812536;29;103195;-80
2021/12/26 09:55:51;;;;;;;;;38.00;30.00;;;;;12.80;47.87;98272.69;4810861;29;102150;-78
2021/12/26 09:58:18;;;;;;;;;41.00;30.75;;;;;12.86;48.73;98269.09;4815993;28;102051;-80
2021/12/26 10:00:46;;;;;;;;;34.25;28.25;;;;;12.92;49.02;98266.31;4812213;28;103603;-83
2021/12/26 10:03:23;;;;;;;;;33.25;28.25;;;;;12.93;49.23;98269.84;4815300;29;102161;-83
2021/12/26 10:06:13;;;;;;;;;40.75;31.25;;;;;12.94;48.31;98272.34;4809381;29;102113;-83
2021/12/26 10:08:52;;;;;;;;;38.75;30.50;;;;;12.96;48.95;98266.72;4807843;29;101900;-82
2021/12/26 10:11:19;;;;;;;;;33.25;25.75;;;;;12.94;48.16;98271.50;4810334;29;103630;-83
2021/12/26 10:13:48;;;;;;;;;28.50;27.00;;;;;12.90;48.83;98259.44;4815055;29;107586;-82
2021/12/26 10:16:17;;;;;;;;;31.75;27.25;;;;;12.92;47.73;98260.06;4809967;29;102459;-84
2021/12/26 10:18:45;;;;;;;;;28.75;23.50;;;;;12.88;47.42;98261.53;4809194;29;102855;-85
2021/12/26 10:21:39;;;;;;;;;28.50;25.00;;;;;12.86;48.54;98269.94;4806164;29;103387;-85
2021/12/26 10:24:27;;;;;;;;;32.50;24.50;;;;;12.87;47.71;98263.47;4806162;29;103685;-85
2021/12/26 10:26:54;;;;;;;;;32.25;26.00;;;;;12.86;48.12;98263.66;4807098;29;103046;-85
2021/12/26 10:29:40;;;;;;;;;30.50;26.50;;;;;12.84;47.53;98265.75;4809395;29;102080;-85
2021/12/26 10:32:15;;;;;;;;;32.75;25.75;;;;;12.83;47.82;98269.56;4808154;28;103415;-85
2021/12/26 10:34:58;;;;;;;;;31.25;27.50;;;;;12.81;47.88;98277.91;4810037;28;102652;-85
2021/12/26 10:37:28;;;;;;;;;30.75;27.00;;;;;12.79;47.06;98271.03;4807539;29;102084;-85
2021/12/26 10:39:59;;;;;;;;;31.00;26.00;;;;;12.77;47.67;98273.16;4806408;29;102194;-85
2021/12/26 10:42:30;;;;;;;;;29.00;22.00;;;;;12.76;46.85;98274.19;4808538;29;106092;-85
2021/12/26 10:44:59;;;;;;;;;29.75;22.75;;;;;12.75;46.85;98264.38;4810022;28;102688;-85
2021/12/26 10:47:29;;;;;;;;;28.75;25.75;;;;;12.74;46.47;98273.59;4793373;29;102444;-85
2021/12/26 10:50:00;;;;;;;;;31.00;26.25;;;;;12.76;46.54;98268.78;4811800;29;102259;-85
2021/12/26 10:52:36;;;;;;;;;31.25;28.25;;;;;12.78;46.48;98269.38;4800738;29;104086;-85
2021/12/26 10:55:12;;;;;;;;;33.50;25.50;;;;;12.76;46.75;98268.78;4814470;29;102175;-85
2021/12/26 10:57:46;;;;;;;;;31.25;24.50;;;;;12.75;46.48;98273.38;4805200;29;101720;-85
2021/12/26 11:00:23;;;;;;;;;31.25;24.50;;;;;12.76;47.13;98268.78;4817992;29;102314;-85
2021/12/26 11:02:59;;;;;;;;;34.00;26.00;;;;;12.77;47.13;98265.00;4814996;29;103404;-85
2021/12/26 11:05:35;;;;;;;;;31.50;24.25;;;;;12.78;47.15;98255.81;4809047;29;101696;-85
2021/12/26 11:08:04;;;;;;;;;25.50;18.75;;;;;12.79;46.57;98263.72;4810469;29;103141;-85
2021/12/26 11:10:34;;;;;;;;;30.75;27.00;;;;;12.83;46.51;98272.28;4815778;29;102803;-85
2021/12/26 11:13:02;;;;;;;;;29.50;23.00;;;;;12.86;45.90;98274.53;4812298;29;103476;-85
2021/12/26 11:15:34;;;;;;;;;29.50;24.75;;;;;12.88;46.19;98266.97;4813322;29;102316;-85
2021/12/26 11:18:04;;;;;;;;;29.50;24.50;;;;;12.89;46.58;98263.22;4812582;29;102138;-85
2021/12/26 11:20:36;;;;;;;;;30.25;26.00;;;;;12.91;46.35;98261.13;4811133;29;102467;-85
2021/12/26 11:23:09;;;;;;;;;24.25;21.50;;;;;12.92;46.40;98268.22;4807562;29;103381;-85
2021/12/26 11:25:43;;;;;;;;;29.75;23.75;;;;;12.93;45.41;98257.13;4815640;29;102082;-85
2021/12/26 11:28:15;;;;;;;;;26.75;23.50;;;;;12.94;45.65;98261.50;4813685;29;103195;-85